Flight Track Log - Related Links

Times and Time Zones

All times are in EDT time to prevent confusion due to time zone crossing. See the TAM3543 flight status page for this flight to view local times or setup timezone preferences in your user account.

Time Position Orientation Groundspeed Altitude Reporting Facility
EDT Latitude Longitude Course Direction KTS MPH feet Rate Location/Type
Mon 02:58:47 AM -3.0390 -60.0320 90° East 160 184 900  Level FlightAware ADS-B
Mon 02:59:18 AM -3.0390 -60.0070 90° East 184 212 1,500 1,241 Climbing FlightAware ADS-B
Mon 02:59:45 AM -3.0400 -59.9820 92° East 206 237 2,100 1,333 Climbing FlightAware ADS-B
Mon 02:59:54 AM -3.0420 -59.9740 104° East 211 243 2,300 789 Climbing FlightAware ADS-B
Mon 03:00:23 AM -3.0570 -59.9570 131° Southeast 241 277 2,600 1,869 Climbing FlightAware ADS-B
Mon 03:00:55 AM -3.0960 -59.9280 143° Southeast 261 300 4,200 2,900 Climbing FlightAware ADS-B
Mon 03:01:23 AM -3.1230 -59.9080 144° Southeast 261 300 5,500 2,690 Climbing FlightAware ADS-B
Mon 03:01:53 AM -3.1520 -59.8850 142° Southeast 267 307 6,800 2,483 Climbing FlightAware ADS-B
Mon 03:02:21 AM -3.1790 -59.8640 142° Southeast 272 313 7,900 2,318 Climbing FlightAware ADS-B
Mon 03:02:37 AM -3.1960 -59.8510 143° Southeast 279 321 8,500 1,750 Climbing FlightAware ADS-B
Mon 03:03:09 AM -3.2140 -59.8370 142° Southeast 277 319 9,300 1,737 Climbing FlightAware ADS-B
Mon 03:03:53 AM -3.2750 -59.7890 142° Southeast 313 360 10,700 1,618 Climbing FlightAware ADS-B
Mon 03:04:38 AM -3.3270 -59.7480 142° Southeast 340 391 11,700 1,500 Climbing FlightAware ADS-B
Mon 03:05:17 AM -3.3790 -59.7070 142° Southeast 359 413 12,800 2,024 Climbing FlightAware ADS-B
Mon 03:06:01 AM -3.4380 -59.6620 143° Southeast 357 411 14,500 1,953 Climbing FlightAware ADS-B
Mon 03:06:43 AM -3.4930 -59.6180 141° Southeast 370 426 15,600 1,846 Climbing FlightAware ADS-B
Mon 03:07:19 AM -3.5430 -59.5800 143° Southeast 369 425 16,900 1,857 Climbing FlightAware ADS-B
Mon 03:08:07 AM -3.6080 -59.5280 141° Southeast 374 430 18,200 1,129 Climbing FlightAware ADS-B
Mon 03:09:00 AM -3.6760 -59.4740 142° Southeast 383 441 18,800 316 Climbing FlightAware ADS-B
Mon 03:10:01 AM -3.7480 -59.4160 141° Southeast 383 441 18,800  Level FlightAware ADS-B
Mon 03:10:37 AM -3.7900 -59.3820 141° Southeast 383 441 18,800  Level FlightAware ADS-B
Mon 03:11:13 AM -3.8320 -59.3480 141° Southeast 383 441 18,800  Level FlightAware ADS-B
Mon 03:11:52 AM -3.8780 -59.3110 141° Southeast 383 441 18,800 180 Level FlightAware ADS-B
Mon 03:14:00 AM -4.0623 -59.1429 138° Southeast  Level Estimated
Mon 03:15:00 AM -4.1487 -59.0640 138° Southeast  Level Estimated
Mon 03:16:00 AM -4.2351 -58.9852 138° Southeast  Level Estimated
Mon 03:17:00 AM -4.3214 -58.9063 138° Southeast  Level Estimated
Mon 03:18:00 AM -4.4078 -58.8274 138° Southeast  Level Estimated
Mon 03:19:00 AM -4.4942 -58.7485 138° Southeast  Level Estimated
Mon 03:20:00 AM -4.5805 -58.6696 138° Southeast  Level Estimated
Mon 03:21:00 AM -4.6668 -58.5906 138° Southeast  Level Estimated
Mon 03:22:00 AM -4.7532 -58.5116 138° Southeast  Level Estimated
Mon 03:23:00 AM -4.8395 -58.4326 138° Southeast  Level Estimated
Mon 03:24:00 AM -4.9258 -58.3536 138° Southeast  Level Estimated
Mon 03:25:00 AM -5.0121 -58.2746 138° Southeast  Level Estimated
Mon 03:26:00 AM -5.0984 -58.1955 138° Southeast  Level Estimated
Mon 03:27:00 AM -5.1847 -58.1165 138° Southeast  Level Estimated
Mon 03:28:00 AM -5.2709 -58.0374 138° Southeast  Level Estimated
Mon 03:29:00 AM -5.3572 -57.9583 138° Southeast  Level Estimated
Mon 03:30:00 AM -5.4434 -57.8791 138° Southeast  Level Estimated
Mon 03:31:00 AM -5.5297 -57.8000 138° Southeast  Level Estimated
Mon 03:32:00 AM -5.6159 -57.7208 138° Southeast  Level Estimated
Mon 03:33:00 AM -5.7021 -57.6416 138° Southeast  Level Estimated
Mon 03:34:00 AM -5.7883 -57.5624 138° Southeast  Level Estimated
Mon 03:35:00 AM -5.8745 -57.4831 138° Southeast  Level Estimated
Mon 03:36:00 AM -5.9607 -57.4038 138° Southeast  Level Estimated
Mon 03:37:00 AM -6.0469 -57.3245 138° Southeast  Level Estimated
Mon 03:38:00 AM -6.1331 -57.2452 138° Southeast  Level Estimated
Mon 03:39:00 AM -6.2192 -57.1658 138° Southeast  Level Estimated
Mon 03:40:00 AM -6.3053 -57.0864 138° Southeast  Level Estimated
Mon 03:41:00 AM -6.3915 -57.0070 138° Southeast  Level Estimated
Mon 03:42:00 AM -6.4776 -56.9276 137° Southeast  Level Estimated
Mon 03:43:00 AM -6.5637 -56.8481 137° Southeast  Level Estimated
Mon 03:44:00 AM -6.6498 -56.7686 137° Southeast  Level Estimated
Mon 03:45:00 AM -6.7359 -56.6891 137° Southeast  Level Estimated
Mon 03:46:00 AM -6.8219 -56.6096 137° Southeast  Level Estimated
Mon 03:47:00 AM -6.9080 -56.5300 137° Southeast  Level Estimated
Mon 03:48:00 AM -6.9940 -56.4504 137° Southeast  Level Estimated
Mon 03:49:00 AM -7.0800 -56.3708 137° Southeast  Level Estimated
Mon 03:50:00 AM -7.1660 -56.2911 137° Southeast  Level Estimated
Mon 03:51:00 AM -7.2520 -56.2114 137° Southeast  Level Estimated
Mon 03:52:00 AM -7.3380 -56.1317 137° Southeast  Level Estimated
Mon 03:53:00 AM -7.4240 -56.0519 137° Southeast  Level Estimated
Mon 03:54:00 AM -7.5046 -55.9771 137° Southeast  Level Estimated
Mon 03:55:00 AM -7.5851 -55.9023 137° Southeast  Level Estimated
Mon 03:56:00 AM -7.6657 -55.8275 137° Southeast  Level Estimated
Mon 03:57:00 AM -7.7462 -55.7526 137° Southeast  Level Estimated
Mon 03:58:00 AM -7.8268 -55.6777 137° Southeast  Level Estimated
Mon 03:59:00 AM -7.9073 -55.6027 137° Southeast  Level Estimated
Mon 04:00:00 AM -7.9878 -55.5278 137° Southeast  Level Estimated
Mon 04:01:00 AM -8.0683 -55.4528 137° Southeast  Level Estimated
Mon 04:02:00 AM -8.1488 -55.3777 137° Southeast  Level Estimated
Mon 04:03:00 AM -8.2292 -55.3027 137° Southeast  Level Estimated
Mon 04:04:00 AM -8.3097 -55.2276 137° Southeast  Level Estimated
Mon 04:05:00 AM -8.3901 -55.1525 137° Southeast  Level Estimated
Mon 04:06:00 AM -8.4705 -55.0773 137° Southeast  Level Estimated
Mon 04:07:00 AM -8.5510 -55.0021 137° Southeast  Level Estimated
Mon 04:08:00 AM -8.6313 -54.9269 137° Southeast  Level Estimated
Mon 04:09:00 AM -8.7117 -54.8517 137° Southeast  Level Estimated
Mon 04:10:00 AM -8.7921 -54.7764 137° Southeast  Level Estimated
Mon 04:11:00 AM -8.8724 -54.7011 137° Southeast  Level Estimated
Mon 04:12:00 AM -8.9528 -54.6257 137° Southeast  Level Estimated
Mon 04:13:00 AM -9.0331 -54.5504 137° Southeast  Level Estimated
Mon 04:14:00 AM -9.1134 -54.4749 137° Southeast  Level Estimated
Mon 04:15:00 AM -9.1937 -54.3995 137° Southeast  Level Estimated
Mon 04:16:00 AM -9.2739 -54.3240 137° Southeast  Level Estimated
Mon 04:17:00 AM -9.3542 -54.2485 137° Southeast  Level Estimated
Mon 04:18:00 AM -9.4344 -54.1730 137° Southeast  Level Estimated
Mon 04:19:00 AM -9.5147 -54.0974 137° Southeast  Level Estimated
Mon 04:20:00 AM -9.5949 -54.0218 137° Southeast  Level Estimated
Mon 04:21:00 AM -9.6751 -53.9461 137° Southeast  Level Estimated
Mon 04:22:00 AM -9.7552 -53.8704 137° Southeast  Level Estimated
Mon 04:23:00 AM -9.8354 -53.7947 137° Southeast  Level Estimated
Mon 04:24:00 AM -9.9155 -53.7189 137° Southeast  Level Estimated
Mon 04:25:00 AM -9.9957 -53.6431 137° Southeast  Level Estimated
Mon 04:26:00 AM -10.0758 -53.5673 137° Southeast  Level Estimated
Mon 04:27:00 AM -10.1559 -53.4914 137° Southeast  Level Estimated
Mon 04:28:00 AM -10.2359 -53.4155 137° Southeast  Level Estimated
Mon 04:29:00 AM -10.3160 -53.3396 137° Southeast  Level Estimated
Mon 04:30:00 AM -10.3960 -53.2636 137° Southeast  Level Estimated
Mon 04:31:00 AM -10.4760 -53.1875 137° Southeast  Level Estimated
Mon 04:32:00 AM -10.5560 -53.1115 137° Southeast  Level Estimated
Mon 04:33:00 AM -10.6360 -53.0354 137° Southeast  Level Estimated
Mon 04:34:00 AM -10.7160 -52.9592 137° Southeast  Level Estimated
Mon 04:35:00 AM -10.7959 -52.8830 137° Southeast  Level Estimated
Mon 04:36:00 AM -10.8758 -52.8068 137° Southeast  Level Estimated
Mon 04:37:00 AM -10.9558 -52.7305 137° Southeast  Level Estimated
Mon 04:38:00 AM -11.0357 -52.6542 137° Southeast  Level Estimated
Mon 04:39:00 AM -11.1155 -52.5779 137° Southeast  Level Estimated
Mon 04:40:00 AM -11.1954 -52.5015 137° Southeast  Level Estimated
Mon 04:41:00 AM -11.2752 -52.4250 137° Southeast  Level Estimated
Mon 04:42:00 AM -11.3550 -52.3485 137° Southeast  Level Estimated
Mon 04:43:00 AM -11.4348 -52.2720 137° Southeast  Level Estimated
Mon 04:44:00 AM -11.5146 -52.1954 137° Southeast  Level Estimated
Mon 04:45:00 AM -11.5943 -52.1188 137° Southeast  Level Estimated
Mon 04:46:00 AM -11.6741 -52.0422 137° Southeast  Level Estimated
Mon 04:47:00 AM -11.7538 -51.9655 137° Southeast  Level Estimated
Mon 04:48:00 AM -11.8335 -51.8887 137° Southeast  Level Estimated
Mon 04:49:00 AM -11.9131 -51.8120 137° Southeast  Level Estimated
Mon 04:50:00 AM -11.9928 -51.7351 137° Southeast  Level Estimated
Mon 04:51:00 AM -12.0724 -51.6582 137° Southeast  Level Estimated
Mon 04:52:00 AM -12.1520 -51.5813 137° Southeast  Level Estimated
Mon 04:52:17 AM -12.8500 -51.0050 137° Southeast 435 501 37,000  Level FlightAware ADS-B
Mon 04:53:00 AM -12.2316 -51.5044 137° Southeast  Level Estimated
Mon 04:53:09 AM -12.8350 -51.0200 316° Northwest 435 501 37,000  Level FlightAware ADS-B
Mon 04:53:45 AM -12.8790 -50.9760 136° Southeast 435 501 37,000  Level FlightAware ADS-B
Mon 04:54:45 AM -12.9530 -50.9030 136° Southeast 435 501 37,000  Level FlightAware ADS-B
Mon 04:55:21 AM -12.9970 -50.8590 136° Southeast 435 501 37,000  Level FlightAware ADS-B
Mon 04:55:57 AM -13.0420 -50.8150 136° Southeast 435 501 37,000  Level FlightAware ADS-B
Mon 04:56:45 AM -13.1010 -50.7570 136° Southeast 435 501 37,000  Level FlightAware ADS-B
Mon 04:57:21 AM -13.1450 -50.7130 136° Southeast 435 501 37,000  Level FlightAware ADS-B
Mon 04:58:09 AM -13.2040 -50.6540 136° Southeast 435 501 37,000  Level FlightAware ADS-B
Mon 04:58:45 AM -13.2480 -50.6100 136° Southeast 435 501 37,000  Level FlightAware ADS-B
Mon 04:59:33 AM -13.3070 -50.5520 136° Southeast 435 501 37,000  Level FlightAware ADS-B
Mon 04:59:57 AM -13.3370 -50.5220 136° Southeast 435 501 37,000  Level FlightAware ADS-B
Mon 05:02:08 AM -13.4980 -50.3620 136° Southeast 435 501 37,000 -504 Level FlightAware ADS-B
Mon 05:04:00 AM -13.6431 -50.2139 135° Southeast  Level Estimated
Mon 05:05:00 AM -13.7208 -50.1345 135° Southeast  Level Estimated
Mon 05:06:00 AM -13.7985 -50.0550 135° Southeast  Level Estimated
Mon 05:07:00 AM -13.8762 -49.9755 135° Southeast  Level Estimated
Mon 05:08:00 AM -13.9538 -49.8959 135° Southeast  Level Estimated
Mon 05:09:00 AM -14.0314 -49.8163 135° Southeast  Level Estimated
Mon 05:10:00 AM -14.1090 -49.7366 135° Southeast  Level Estimated
Mon 05:11:00 AM -14.1866 -49.6568 135° Southeast  Level Estimated
Mon 05:12:00 AM -14.2641 -49.5770 135° Southeast  Level Estimated
Mon 05:13:00 AM -14.3416 -49.4972 135° Southeast  Level Estimated
Mon 05:13:26 AM -14.8100 -49.2240 135° Southeast 424 488 30,200  Level FlightAware ADS-B
Mon 05:14:11 AM -14.8730 -49.1710 141° Southeast 419 482 28,600 -2,147 Descending FlightAware ADS-B
Mon 05:15:01 AM -14.9480 -49.1060 140° Southeast 408 470 26,800 -2,094 Descending FlightAware ADS-B
Mon 05:15:57 AM -15.0250 -49.0290 136° Southeast 398 458 24,900 -1,978 Descending FlightAware ADS-B
Mon 05:16:32 AM -15.0670 -48.9790 131° Southeast 393 452 23,800 -1,714 Descending FlightAware ADS-B
Mon 05:17:21 AM -15.1250 -48.9120 132° Southeast 383 441 22,500 -1,733 Descending FlightAware ADS-B
Mon 05:18:02 AM -15.1720 -48.8570 132° Southeast 378 435 21,200 -1,926 Descending FlightAware ADS-B
Mon 05:18:42 AM -15.2200 -48.8010 132° Southeast 373 429 19,900 -1,857 Descending FlightAware ADS-B
Mon 05:19:26 AM -15.2710 -48.7410 131° Southeast 369 425 18,600 -1,800 Descending FlightAware ADS-B
Mon 05:20:02 AM -15.3110 -48.6950 132° Southeast 366 421 17,500 -1,658 Descending FlightAware ADS-B
Mon 05:20:42 AM -15.3550 -48.6430 131° Southeast 355 409 16,500 -1,595 Descending FlightAware ADS-B
Mon 05:21:21 AM -15.3980 -48.5930 132° Southeast 342 394 15,400 -1,575 Descending FlightAware ADS-B
Mon 05:22:02 AM -15.4380 -48.5470 132° Southeast 329 379 14,400 -1,481 Descending FlightAware ADS-B
Mon 05:22:42 AM -15.4790 -48.4990 132° Southeast 322 371 13,400 -1,519 Descending FlightAware ADS-B
Mon 05:23:21 AM -15.5180 -48.4520 131° Southeast 319 367 12,400 -1,650 Descending FlightAware ADS-B
Mon 05:24:02 AM -15.5590 -48.4100 135° Southeast 321 369 11,200 -1,605 Descending FlightAware ADS-B
Mon 05:24:47 AM -15.6090 -48.3620 137° Southeast 315 362 10,100 -1,300 Descending FlightAware ADS-B
Mon 05:25:02 AM -15.6250 -48.3470 138° Southeast 309 356 9,900 -750 Descending FlightAware ADS-B
Mon 05:25:27 AM -15.6510 -48.3220 137° Southeast 307 353 9,600 -1,091 Descending FlightAware ADS-B
Mon 05:25:57 AM -15.6820 -48.2920 137° Southeast 307 353 8,900 -1,227 Descending FlightAware ADS-B
Mon 05:26:11 AM -15.6980 -48.2770 138° Southeast 302 348 8,700 -1,050 Descending FlightAware ADS-B
Mon 05:26:37 AM -15.7230 -48.2530 137° Southeast 292 336 8,200 -1,440 Descending FlightAware ADS-B
Mon 05:27:01 AM -15.7480 -48.2290 137° Southeast 291 335 7,500 -1,592 Descending FlightAware ADS-B
Mon 05:27:26 AM -15.7720 -48.2060 137° Southeast 288 331 6,900 -1,393 Descending FlightAware ADS-B
Mon 05:27:57 AM -15.8020 -48.1770 137° Southeast 280 322 6,200 -1,600 Descending FlightAware ADS-B
Mon 05:28:26 AM -15.8290 -48.1510 137° Southeast 266 306 5,300 -1,320 Descending FlightAware ADS-B
Mon 05:28:47 AM -15.8470 -48.1340 138° Southeast 243 280 5,100 -391 Descending FlightAware ADS-B
Mon 05:29:12 AM -15.8660 -48.1160 138° Southeast 219 252 5,000  Descending FlightAware ADS-B
Mon 05:29:26 AM -15.8720 -48.1030 116° Southeast 200 230 5,100  Climbing FlightAware ADS-B
Mon 05:29:37 AM -15.8730 -48.0940 97° East 197 227 5,000  Descending FlightAware ADS-B
Mon 05:30:11 AM -15.8720 -48.0620 88° East 180 207 5,100 102 Climbing FlightAware ADS-B
Mon 05:30:36 AM -15.8710 -48.0420 87° East 153 176 5,100 -214 Level FlightAware ADS-B
Mon 05:31:07 AM -15.8700 -48.0210 87° East 143 165 4,900 -536 Descending FlightAware ADS-B
Mon 05:31:32 AM -15.8680 -48.0030 83° East 144 166 4,600 -769 Descending FlightAware ADS-B
Mon 05:31:46 AM -15.8680 -47.9930 90° East 143 165 4,400 -800 Descending FlightAware ADS-B
Mon 05:32:17 AM -15.8660 -47.9720 84° East 143 165 4,000 -764 Descending FlightAware ADS-B
Mon 05:32:41 AM -15.8650 -47.9550 87° East 148 170 3,700 -682 Descending FlightAware ADS-B
Mon 05:33:01 AM -15.8640 -47.9400 86° East 151 174 3,500 -800 Descending FlightAware ADS-B
Mon 05:33:26 AM -15.8630 -47.9220 87° East 155 178 3,100 -224 Descending FlightAware ADS-B
Mon 05:34:48 AM -15.8640 -47.9080 235° Southwest 155 178 3,100  Level FlightAware ADS-B
Mon 05:35:14 AM -15.8630 -47.8910 87° East 155 178 3,100  Level FlightAware ADS-B

Login

Don't have an account? Register now (free) for customized features, flight alerts, and more!